sensor_id;sensor_type;location;lat;lon;timestamp;pressure;altitude;pressure_sealevel;temperature;humidity
20017;BME280;10169;42.664;23.610;2023-04-01T00:01:52;94419.88;;;6.88;100.00
20017;BME280;10169;42.664;23.610;2023-04-01T00:03:52;94427.34;;;6.75;100.00
20017;BME280;10169;42.664;23.610;2023-04-01T00:05:54;94424.38;;;6.59;100.00
20017;BME280;10169;42.664;23.610;2023-04-01T00:07:55;94425.47;;;6.47;100.00
20017;BME280;10169;42.664;23.610;2023-04-01T00:09:55;94421.34;;;6.51;100.00
20017;BME280;10169;42.664;23.610;2023-04-01T00:11:56;94414.22;;;6.51;100.00
20017;BME280;10169;42.664;23.610;2023-04-01T00:13:56;94411.38;;;6.41;100.00
20017;BME280;10169;42.664;23.610;2023-04-01T00:15:56;94410.50;;;6.36;100.00
20017;BME280;10169;42.664;23.610;2023-04-01T00:17:56;94424.16;;;6.33;100.00
20017;BME280;10169;42.664;23.610;2023-04-01T00:19:57;94419.25;;;6.53;100.00
20017;BME280;10169;42.664;23.610;2023-04-01T00:21:58;94429.09;;;6.57;100.00
20017;BME280;10169;42.664;23.610;2023-04-01T00:23:58;94420.94;;;6.59;100.00
20017;BME280;10169;42.664;23.610;2023-04-01T00:26:00;94427.28;;;6.58;100.00
20017;BME280;10169;42.664;23.610;2023-04-01T00:28:00;94430.94;;;6.57;100.00
20017;BME280;10169;42.664;23.610;2023-04-01T00:30:01;94426.97;;;6.54;100.00
20017;BME280;10169;42.664;23.610;2023-04-01T00:32:01;94418.13;;;6.49;100.00
20017;BME280;10169;42.664;23.610;2023-04-01T00:34:01;94413.81;;;6.43;100.00
20017;BME280;10169;42.664;23.610;2023-04-01T00:36:12;94415.22;;;6.34;100.00
20017;BME280;10169;42.664;23.610;2023-04-01T00:38:13;94412.19;;;6.42;100.00
20017;BME280;10169;42.664;23.610;2023-04-01T00:40:27;94410.72;;;6.34;100.00
20017;BME280;10169;42.664;23.610;2023-04-01T00:42:28;94405.34;;;6.29;100.00
20017;BME280;10169;42.664;23.610;2023-04-01T00:44:29;94403.59;;;6.35;100.00
20017;BME280;10169;42.664;23.610;2023-04-01T00:46:29;94405.22;;;6.36;100.00
20017;BME280;10169;42.664;23.610;2023-04-01T00:48:31;94404.66;;;6.34;100.00
20017;BME280;10169;42.664;23.610;2023-04-01T00:50:33;94406.09;;;6.41;100.00
20017;BME280;10169;42.664;23.610;2023-04-01T00:52:34;94397.63;;;6.39;100.00
20017;BME280;10169;42.664;23.610;2023-04-01T00:54:35;94387.31;;;6.38;100.00
20017;BME280;10169;42.664;23.610;2023-04-01T00:58:38;94380.66;;;6.35;100.00
20017;BME280;10169;42.664;23.610;2023-04-01T01:00:39;94380.69;;;6.24;100.00
20017;BME280;10169;42.664;23.610;2023-04-01T01:02:44;94375.91;;;6.21;100.00
20017;BME280;10169;42.664;23.610;2023-04-01T01:04:44;94377.97;;;6.19;100.00
20017;BME280;10169;42.664;23.610;2023-04-01T01:06:54;94381.66;;;6.18;100.00
20017;BME280;10169;42.664;23.610;2023-04-01T01:10:57;94375.47;;;6.12;100.00
20017;BME280;10169;42.664;23.610;2023-04-01T01:15:20;94387.81;;;6.23;100.00
20017;BME280;10169;42.664;23.610;2023-04-01T01:26:11;94369.34;;;6.51;100.00
20017;BME280;10169;42.664;23.610;2023-04-01T01:30:42;94354.53;;;6.79;100.00
20017;BME280;10169;42.664;23.610;2023-04-01T01:35:32;94346.97;;;7.04;100.00
20017;BME280;10169;42.664;23.610;2023-04-01T01:37:34;94338.69;;;7.12;100.00
20017;BME280;10169;42.664;23.610;2023-04-01T01:39:35;94344.22;;;7.10;100.00
20017;BME280;10169;42.664;23.610;2023-04-01T01:41:36;94325.84;;;7.20;100.00
20017;BME280;10169;42.664;23.610;2023-04-01T01:43:39;94304.72;;;7.20;100.00
20017;BME280;10169;42.664;23.610;2023-04-01T01:45:43;94325.78;;;7.54;100.00
20017;BME280;10169;42.664;23.610;2023-04-01T01:47:46;94324.84;;;7.43;100.00
20017;BME280;10169;42.664;23.610;2023-04-01T01:49:47;94315.50;;;7.36;100.00
20017;BME280;10169;42.664;23.610;2023-04-01T01:51:48;94318.88;;;7.31;100.00
20017;BME280;10169;42.664;23.610;2023-04-01T01:53:48;94313.63;;;7.14;100.00
20017;BME280;10169;42.664;23.610;2023-04-01T01:55:49;94309.63;;;6.95;100.00
20017;BME280;10169;42.664;23.610;2023-04-01T01:57:49;94314.66;;;6.80;100.00
20017;BME280;10169;42.664;23.610;2023-04-01T01:59:50;94309.00;;;6.72;100.00
20017;BME280;10169;42.664;23.610;2023-04-01T02:01:53;94310.25;;;6.69;100.00
20017;BME280;10169;42.664;23.610;2023-04-01T02:03:54;94314.97;;;6.67;100.00
20017;BME280;10169;42.664;23.610;2023-04-01T02:05:56;94304.50;;;6.72;100.00
20017;BME280;10169;42.664;23.610;2023-04-01T02:08:05;94288.91;;;6.87;100.00
20017;BME280;10169;42.664;23.610;2023-04-01T02:10:06;94290.03;;;6.75;100.00
20017;BME280;10169;42.664;23.610;2023-04-01T02:12:08;94293.13;;;6.55;100.00
20017;BME280;10169;42.664;23.610;2023-04-01T02:16:27;94296.47;;;6.34;100.00
20017;BME280;10169;42.664;23.610;2023-04-01T02:18:29;94289.84;;;6.31;100.00
20017;BME280;10169;42.664;23.610;2023-04-01T02:20:30;94298.00;;;6.30;100.00
20017;BME280;10169;42.664;23.610;2023-04-01T02:22:34;94291.66;;;6.31;100.00
20017;BME280;10169;42.664;23.610;2023-04-01T02:24:35;94285.38;;;6.32;100.00
20017;BME280;10169;42.664;23.610;2023-04-01T02:26:37;94275.53;;;6.44;100.00
20017;BME280;10169;42.664;23.610;2023-04-01T02:28:38;94272.16;;;6.48;100.00
20017;BME280;10169;42.664;23.610;2023-04-01T02:30:39;94275.22;;;6.57;100.00
20017;BME280;10169;42.664;23.610;2023-04-01T02:32:42;94268.19;;;6.63;100.00
20017;BME280;10169;42.664;23.610;2023-04-01T02:34:42;94283.56;;;6.66;100.00
20017;BME280;10169;42.664;23.610;2023-04-01T02:36:43;94269.56;;;6.65;100.00
20017;BME280;10169;42.664;23.610;2023-04-01T02:38:44;94257.06;;;6.77;100.00
20017;BME280;10169;42.664;23.610;2023-04-01T02:40:49;94260.03;;;6.81;100.00
20017;BME280;10169;42.664;23.610;2023-04-01T02:42:50;94266.25;;;6.91;100.00
20017;BME280;10169;42.664;23.610;2023-04-01T02:44:50;94268.50;;;6.99;100.00
20017;BME280;10169;42.664;23.610;2023-04-01T02:46:51;94270.72;;;7.07;100.00
20017;BME280;10169;42.664;23.610;2023-04-01T02:48:51;94262.69;;;7.19;100.00
20017;BME280;10169;42.664;23.610;2023-04-01T02:50:51;94262.50;;;7.25;100.00
20017;BME280;10169;42.664;23.610;2023-04-01T02:52:52;94254.66;;;7.30;100.00
20017;BME280;10169;42.664;23.610;2023-04-01T02:54:52;94255.50;;;7.36;100.00
20017;BME280;10169;42.664;23.610;2023-04-01T02:56:52;94259.16;;;7.52;100.00
20017;BME280;10169;42.664;23.610;2023-04-01T02:58:53;94266.97;;;7.63;100.00
20017;BME280;10169;42.664;23.610;2023-04-01T03:00:53;94271.78;;;7.66;100.00
20017;BME280;10169;42.664;23.610;2023-04-01T03:02:54;94271.13;;;7.81;100.00
20017;BME280;10169;42.664;23.610;2023-04-01T03:04:54;94273.91;;;7.91;100.00
20017;BME280;10169;42.664;23.610;2023-04-01T03:06:55;94284.53;;;7.96;100.00
20017;BME280;10169;42.664;23.610;2023-04-01T03:08:55;94288.78;;;7.97;100.00
20017;BME280;10169;42.664;23.610;2023-04-01T03:10:55;94286.75;;;8.04;100.00
20017;BME280;10169;42.664;23.610;2023-04-01T03:12:56;94288.88;;;8.07;100.00
20017;BME280;10169;42.664;23.610;2023-04-01T03:14:56;94289.28;;;8.21;100.00
20017;BME280;10169;42.664;23.610;2023-04-01T03:16:56;94277.94;;;8.20;100.00
20017;BME280;10169;42.664;23.610;2023-04-01T03:18:56;94281.56;;;8.14;100.00
20017;BME280;10169;42.664;23.610;2023-04-01T03:23:14;94277.41;;;8.23;100.00
20017;BME280;10169;42.664;23.610;2023-04-01T03:25:17;94280.31;;;8.22;100.00
20017;BME280;10169;42.664;23.610;2023-04-01T03:27:18;94282.47;;;8.25;100.00
20017;BME280;10169;42.664;23.610;2023-04-01T03:29:18;94285.72;;;8.32;100.00
20017;BME280;10169;42.664;23.610;2023-04-01T03:31:18;94282.09;;;8.38;100.00
20017;BME280;10169;42.664;23.610;2023-04-01T03:33:19;94289.84;;;8.44;100.00
20017;BME280;10169;42.664;23.610;2023-04-01T03:35:19;94287.53;;;8.53;100.00
20017;BME280;10169;42.664;23.610;2023-04-01T03:37:20;94295.31;;;8.64;100.00
20017;BME280;10169;42.664;23.610;2023-04-01T03:39:20;94292.22;;;8.46;100.00
20017;BME280;10169;42.664;23.610;2023-04-01T03:41:20;94289.81;;;8.18;100.00
20017;BME280;10169;42.664;23.610;2023-04-01T03:43:21;94290.94;;;7.78;100.00
20017;BME280;10169;42.664;23.610;2023-04-01T03:45:22;94303.50;;;7.66;100.00
20017;BME280;10169;42.664;23.610;2023-04-01T03:47:22;94306.47;;;7.53;100.00
20017;BME280;10169;42.664;23.610;2023-04-01T03:49:22;94313.00;;;7.46;100.00
20017;BME280;10169;42.664;23.610;2023-04-01T03:51:23;94304.19;;;7.40;100.00
20017;BME280;10169;42.664;23.610;2023-04-01T03:53:23;94291.84;;;7.46;100.00
20017;BME280;10169;42.664;23.610;2023-04-01T03:55:23;94295.06;;;7.48;100.00
20017;BME280;10169;42.664;23.610;2023-04-01T03:57:24;94303.97;;;7.42;100.00
20017;BME280;10169;42.664;23.610;2023-04-01T03:59:24;94304.38;;;7.33;100.00
20017;BME280;10169;42.664;23.610;2023-04-01T04:01:24;94301.16;;;7.31;100.00
20017;BME280;10169;42.664;23.610;2023-04-01T04:03:24;94300.91;;;7.33;100.00
20017;BME280;10169;42.664;23.610;2023-04-01T04:05:25;94281.53;;;7.44;100.00
20017;BME280;10169;42.664;23.610;2023-04-01T04:07:25;94290.13;;;7.56;100.00
20017;BME280;10169;42.664;23.610;2023-04-01T04:09:25;94292.19;;;7.71;100.00
20017;BME280;10169;42.664;23.610;2023-04-01T04:11:26;94292.75;;;7.73;100.00
20017;BME280;10169;42.664;23.610;2023-04-01T04:13:26;94283.25;;;7.77;100.00
20017;BME280;10169;42.664;23.610;2023-04-01T04:15:26;94275.88;;;7.79;100.00
20017;BME280;10169;42.664;23.610;2023-04-01T04:17:27;94266.84;;;7.75;100.00
20017;BME280;10169;42.664;23.610;2023-04-01T04:19:31;94249.56;;;7.67;100.00
20017;BME280;10169;42.664;23.610;2023-04-01T04:21:33;94244.19;;;7.62;100.00
20017;BME280;10169;42.664;23.610;2023-04-01T04:23:34;94233.81;;;7.56;100.00
20017;BME280;10169;42.664;23.610;2023-04-01T04:25:34;94225.72;;;7.41;100.00
20017;BME280;10169;42.664;23.610;2023-04-01T04:27:34;94227.53;;;7.40;100.00
20017;BME280;10169;42.664;23.610;2023-04-01T04:29:35;94219.44;;;7.47;100.00
20017;BME280;10169;42.664;23.610;2023-04-01T04:31:35;94207.44;;;7.61;100.00
20017;BME280;10169;42.664;23.610;2023-04-01T04:33:36;94211.25;;;7.70;100.00
20017;BME280;10169;42.664;23.610;2023-04-01T04:35:36;94202.16;;;7.61;100.00
20017;BME280;10169;42.664;23.610;2023-04-01T04:37:37;94208.56;;;7.43;100.00
20017;BME280;10169;42.664;23.610;2023-04-01T04:39:37;94195.69;;;7.52;100.00
20017;BME280;10169;42.664;23.610;2023-04-01T04:41:37;94201.13;;;7.62;100.00
20017;BME280;10169;42.664;23.610;2023-04-01T04:43:38;94206.91;;;7.59;100.00
20017;BME280;10169;42.664;23.610;2023-04-01T04:45:39;94196.03;;;7.55;100.00
20017;BME280;10169;42.664;23.610;2023-04-01T04:47:39;94191.84;;;7.59;100.00
20017;BME280;10169;42.664;23.610;2023-04-01T04:49:40;94186.50;;;7.54;100.00
20017;BME280;10169;42.664;23.610;2023-04-01T04:51:40;94178.75;;;7.48;100.00
20017;BME280;10169;42.664;23.610;2023-04-01T04:53:40;94174.81;;;7.50;100.00
20017;BME280;10169;42.664;23.610;2023-04-01T04:55:47;94177.31;;;7.62;100.00
20017;BME280;10169;42.664;23.610;2023-04-01T04:57:48;94174.22;;;7.70;100.00
20017;BME280;10169;42.664;23.610;2023-04-01T04:59:48;94167.69;;;7.51;100.00
20017;BME280;10169;42.664;23.610;2023-04-01T05:01:49;94163.97;;;7.52;100.00
20017;BME280;10169;42.664;23.610;2023-04-01T05:03:49;94153.47;;;7.57;100.00
20017;BME280;10169;42.664;23.610;2023-04-01T05:05:50;94162.88;;;7.48;100.00
20017;BME280;10169;42.664;23.610;2023-04-01T05:07:51;94165.78;;;7.46;100.00
20017;BME280;10169;42.664;23.610;2023-04-01T05:09:51;94169.34;;;7.57;100.00
20017;BME280;10169;42.664;23.610;2023-04-01T05:11:51;94163.66;;;7.70;100.00
20017;BME280;10169;42.664;23.610;2023-04-01T05:13:52;94153.94;;;7.75;100.00
20017;BME280;10169;42.664;23.610;2023-04-01T05:15:52;94151.72;;;7.94;100.00
20017;BME280;10169;42.664;23.610;2023-04-01T05:17:52;94151.34;;;8.12;100.00
20017;BME280;10169;42.664;23.610;2023-04-01T05:19:52;94140.00;;;8.17;100.00
20017;BME280;10169;42.664;23.610;2023-04-01T05:21:53;94131.78;;;8.13;100.00
20017;BME280;10169;42.664;23.610;2023-04-01T05:23:53;94131.16;;;8.01;100.00
20017;BME280;10169;42.664;23.610;2023-04-01T05:25:53;94123.97;;;7.96;100.00
20017;BME280;10169;42.664;23.610;2023-04-01T05:27:54;94129.22;;;7.91;100.00
20017;BME280;10169;42.664;23.610;2023-04-01T05:29:54;94122.06;;;7.92;100.00
20017;BME280;10169;42.664;23.610;2023-04-01T05:31:54;94119.91;;;7.84;100.00
20017;BME280;10169;42.664;23.610;2023-04-01T05:33:55;94120.50;;;7.64;100.00
20017;BME280;10169;42.664;23.610;2023-04-01T05:35:55;94123.09;;;7.59;100.00
20017;BME280;10169;42.664;23.610;2023-04-01T05:37:56;94115.47;;;7.63;100.00
20017;BME280;10169;42.664;23.610;2023-04-01T05:39:56;94120.53;;;7.69;100.00
20017;BME280;10169;42.664;23.610;2023-04-01T05:41:58;94116.72;;;7.82;100.00
20017;BME280;10169;42.664;23.610;2023-04-01T05:43:58;94117.31;;;7.94;100.00
20017;BME280;10169;42.664;23.610;2023-04-01T05:45:59;94115.00;;;8.29;100.00
20017;BME280;10169;42.664;23.610;2023-04-01T05:47:59;94113.84;;;8.57;100.00
20017;BME280;10169;42.664;23.610;2023-04-01T05:50:00;94115.34;;;8.85;100.00
20017;BME280;10169;42.664;23.610;2023-04-01T05:52:00;94127.69;;;9.16;100.00
20017;BME280;10169;42.664;23.610;2023-04-01T05:54:00;94120.91;;;9.45;100.00
20017;BME280;10169;42.664;23.610;2023-04-01T05:56:03;94117.78;;;9.73;100.00
20017;BME280;10169;42.664;23.610;2023-04-01T05:58:04;94119.72;;;10.13;100.00
20017;BME280;10169;42.664;23.610;2023-04-01T06:00:04;94128.72;;;10.47;100.00
20017;BME280;10169;42.664;23.610;2023-04-01T06:02:05;94123.69;;;10.71;100.00
20017;BME280;10169;42.664;23.610;2023-04-01T06:04:05;94120.19;;;10.85;100.00
20017;BME280;10169;42.664;23.610;2023-04-01T06:06:10;94111.81;;;11.27;100.00
20017;BME280;10169;42.664;23.610;2023-04-01T06:08:14;94109.88;;;11.43;100.00
20017;BME280;10169;42.664;23.610;2023-04-01T06:10:16;94119.84;;;11.76;100.00
20017;BME280;10169;42.664;23.610;2023-04-01T06:18:36;94107.88;;;13.27;100.00
20017;BME280;10169;42.664;23.610;2023-04-01T06:31:33;94104.91;;;13.76;98.85
20017;BME280;10169;42.664;23.610;2023-04-01T06:43:13;94101.94;;;13.96;96.67
20017;BME280;10169;42.664;23.610;2023-04-01T06:49:48;94076.81;;;13.78;93.35
20017;BME280;10169;42.664;23.610;2023-04-01T06:56:10;94081.44;;;13.92;86.61
20017;BME280;10169;42.664;23.610;2023-04-01T06:58:19;94076.97;;;13.87;87.91
20017;BME280;10169;42.664;23.610;2023-04-01T07:00:25;94079.84;;;13.91;89.72
20017;BME280;10169;42.664;23.610;2023-04-01T07:04:29;94080.78;;;14.00;85.19
20017;BME280;10169;42.664;23.610;2023-04-01T07:06:49;94079.34;;;14.07;87.86
20017;BME280;10169;42.664;23.610;2023-04-01T07:08:51;94076.66;;;14.07;90.69
20017;BME280;10169;42.664;23.610;2023-04-01T07:10:58;94070.22;;;14.08;88.91
20017;BME280;10169;42.664;23.610;2023-04-01T07:13:00;94054.69;;;14.10;90.17
20017;BME280;10169;42.664;23.610;2023-04-01T07:17:17;94047.50;;;13.92;100.00
20017;BME280;10169;42.664;23.610;2023-04-01T07:19:27;94039.91;;;13.99;100.00
20017;BME280;10169;42.664;23.610;2023-04-01T07:21:35;94052.56;;;13.94;100.00
20017;BME280;10169;42.664;23.610;2023-04-01T07:23:38;94044.13;;;14.05;100.00
20017;BME280;10169;42.664;23.610;2023-04-01T07:25:46;94050.78;;;14.21;94.49
20017;BME280;10169;42.664;23.610;2023-04-01T07:27:47;94048.03;;;14.26;94.74
20017;BME280;10169;42.664;23.610;2023-04-01T07:29:48;94031.38;;;14.34;92.41
20017;BME280;10169;42.664;23.610;2023-04-01T07:32:01;94040.69;;;14.50;86.08
20017;BME280;10169;42.664;23.610;2023-04-01T07:45:02;94035.00;;;14.98;72.01
20017;BME280;10169;42.664;23.610;2023-04-01T07:49:37;94022.44;;;14.85;72.18
20017;BME280;10169;42.664;23.610;2023-04-01T08:02:49;94014.16;;;14.40;80.26
20017;BME280;10169;42.664;23.610;2023-04-01T08:04:57;94010.38;;;14.41;76.83
20017;BME280;10169;42.664;23.610;2023-04-01T08:07:07;94018.31;;;14.46;82.04
20017;BME280;10169;42.664;23.610;2023-04-01T08:09:20;94019.69;;;14.44;78.08
20017;BME280;10169;42.664;23.610;2023-04-01T08:13:29;94012.06;;;14.37;77.72
20017;BME280;10169;42.664;23.610;2023-04-01T08:19:58;94005.03;;;14.41;79.90
20017;BME280;10169;42.664;23.610;2023-04-01T08:24:44;94003.06;;;14.47;75.65
20017;BME280;10169;42.664;23.610;2023-04-01T08:26:46;93993.47;;;14.60;73.64
20017;BME280;10169;42.664;23.610;2023-04-01T08:31:00;93991.00;;;14.49;76.67
20017;BME280;10169;42.664;23.610;2023-04-01T08:33:05;93988.25;;;14.68;77.81
20017;BME280;10169;42.664;23.610;2023-04-01T08:37:21;93971.13;;;14.83;73.21
20017;BME280;10169;42.664;23.610;2023-04-01T08:43:59;93939.59;;;14.93;87.36
20017;BME280;10169;42.664;23.610;2023-04-01T08:52:36;93929.66;;;15.21;88.67
20017;BME280;10169;42.664;23.610;2023-04-01T08:58:54;93903.34;;;15.72;83.67
20017;BME280;10169;42.664;23.610;2023-04-01T09:07:34;93902.72;;;17.50;58.34
20017;BME280;10169;42.664;23.610;2023-04-01T09:14:07;93898.16;;;18.56;55.58
20017;BME280;10169;42.664;23.610;2023-04-01T09:22:49;93886.25;;;18.20;53.53
20017;BME280;10169;42.664;23.610;2023-04-01T09:29:26;93872.09;;;18.40;54.64
20017;BME280;10169;42.664;23.610;2023-04-01T09:36:07;93876.06;;;18.80;52.05
20017;BME280;10169;42.664;23.610;2023-04-01T09:40:16;93864.97;;;19.31;50.71
20017;BME280;10169;42.664;23.610;2023-04-01T09:44:35;93863.31;;;20.13;48.56
20017;BME280;10169;42.664;23.610;2023-04-01T09:46:37;93858.00;;;20.04;46.90
20017;BME280;10169;42.664;23.610;2023-04-01T09:53:06;93853.59;;;19.67;45.05
20017;BME280;10169;42.664;23.610;2023-04-01T10:01:41;93840.88;;;20.21;47.63
20017;BME280;10169;42.664;23.610;2023-04-01T10:12:08;93825.03;;;20.92;48.16
20017;BME280;10169;42.664;23.610;2023-04-01T10:33:35;93796.81;;;19.31;49.97
20017;BME280;10169;42.664;23.610;2023-04-01T10:53:33;93768.69;;;18.58;51.59
20017;BME280;10169;42.664;23.610;2023-04-01T11:22:19;93737.59;;;18.10;47.80
20017;BME280;10169;42.664;23.610;2023-04-01T11:26:49;93733.75;;;17.91;49.07
20017;BME280;10169;42.664;23.610;2023-04-01T11:39:33;93714.75;;;17.41;49.84
20017;BME280;10169;42.664;23.610;2023-04-01T11:46:00;93724.44;;;17.08;51.22
20017;BME280;10169;42.664;23.610;2023-04-01T11:54:35;93772.41;;;16.84;55.24
20017;BME280;10169;42.664;23.610;2023-04-01T11:56:56;93779.66;;;16.75;57.98
20017;BME280;10169;42.664;23.610;2023-04-01T11:59:05;93786.63;;;16.84;54.80
20017;BME280;10169;42.664;23.610;2023-04-01T12:05:41;93889.97;;;16.34;57.77
20017;BME280;10169;42.664;23.610;2023-04-01T12:07:55;93910.28;;;15.73;63.03
20017;BME280;10169;42.664;23.610;2023-04-01T12:19:09;94017.03;;;11.41;100.00
20017;BME280;10169;42.664;23.610;2023-04-01T12:23:16;94040.19;;;10.87;100.00
20017;BME280;10169;42.664;23.610;2023-04-01T12:36:33;94044.47;;;10.78;100.00
20017;BME280;10169;42.664;23.610;2023-04-01T12:43:21;94038.00;;;10.99;100.00
20017;BME280;10169;42.664;23.610;2023-04-01T12:45:36;94040.31;;;11.21;100.00
20017;BME280;10169;42.664;23.610;2023-04-01T12:52:04;94044.94;;;11.49;100.00
20017;BME280;10169;42.664;23.610;2023-04-01T13:09:25;94035.81;;;11.16;100.00
20017;BME280;10169;42.664;23.610;2023-04-01T13:11:40;94025.13;;;11.26;100.00
20017;BME280;10169;42.664;23.610;2023-04-01T13:18:15;94021.03;;;11.39;100.00
20017;BME280;10169;42.664;23.610;2023-04-01T13:24:58;93991.75;;;11.44;100.00
20017;BME280;10169;42.664;23.610;2023-04-01T13:27:16;93987.75;;;11.46;100.00
20017;BME280;10169;42.664;23.610;2023-04-01T13:29:18;93982.09;;;11.58;100.00
20017;BME280;10169;42.664;23.610;2023-04-01T13:31:41;93978.09;;;11.60;100.00
20017;BME280;10169;42.664;23.610;2023-04-01T13:40:26;93948.00;;;11.99;100.00
20017;BME280;10169;42.664;23.610;2023-04-01T13:42:33;93941.63;;;12.47;100.00
20017;BME280;10169;42.664;23.610;2023-04-01T14:06:30;93876.28;;;15.60;100.00
20017;BME280;10169;42.664;23.610;2023-04-01T14:08:47;93875.28;;;15.70;100.00
20017;BME280;10169;42.664;23.610;2023-04-01T14:34:55;93813.78;;;17.00;100.00
20017;BME280;10169;42.664;23.610;2023-04-01T14:37:19;93809.22;;;17.00;100.00
20017;BME280;10169;42.664;23.610;2023-04-01T14:41:57;93826.53;;;16.60;100.00
20017;BME280;10169;42.664;23.610;2023-04-01T14:44:11;93824.81;;;16.25;100.00
20017;BME280;10169;42.664;23.610;2023-04-01T14:51:08;93835.97;;;16.57;96.89
20017;BME280;10169;42.664;23.610;2023-04-01T14:53:29;93827.50;;;15.63;100.00
20017;BME280;10169;42.664;23.610;2023-04-01T14:57:42;93808.59;;;15.02;100.00
20017;BME280;10169;42.664;23.610;2023-04-01T15:02:20;93821.44;;;15.13;100.00
20017;BME280;10169;42.664;23.610;2023-04-01T15:13:45;93840.06;;;19.55;90.13
20017;BME280;10169;42.664;23.610;2023-04-01T15:18:35;93822.69;;;20.78;74.65
20017;BME280;10169;42.664;23.610;2023-04-01T15:27:30;93818.81;;;15.58;100.00
20017;BME280;10169;42.664;23.610;2023-04-01T15:31:49;93821.31;;;14.61;100.00
20017;BME280;10169;42.664;23.610;2023-04-01T15:33:56;93825.84;;;14.19;100.00
20017;BME280;10169;42.664;23.610;2023-04-01T15:42:15;93824.94;;;13.97;100.00
20017;BME280;10169;42.664;23.610;2023-04-01T15:50:51;93832.53;;;13.30;100.00
20017;BME280;10169;42.664;23.610;2023-04-01T16:03:40;93810.41;;;13.30;100.00
20017;BME280;10169;42.664;23.610;2023-04-01T16:07:59;93802.22;;;13.07;100.00
20017;BME280;10169;42.664;23.610;2023-04-01T16:16:48;94051.03;;;8.47;100.00
20017;BME280;10169;42.664;23.610;2023-04-01T16:23:36;94064.06;;;8.49;100.00
20017;BME280;10169;42.664;23.610;2023-04-01T16:28:14;94065.97;;;8.63;100.00
20017;BME280;10169;42.664;23.610;2023-04-01T16:35:04;94105.56;;;8.43;100.00
20017;BME280;10169;42.664;23.610;2023-04-01T16:39:09;94107.63;;;8.31;100.00
20017;BME280;10169;42.664;23.610;2023-04-01T16:41:14;94120.88;;;8.36;100.00
20017;BME280;10169;42.664;23.610;2023-04-01T16:47:21;94129.19;;;8.18;100.00
20017;BME280;10169;42.664;23.610;2023-04-01T16:49:24;94123.63;;;8.20;100.00
20017;BME280;10169;42.664;23.610;2023-04-01T16:51:25;94145.06;;;8.18;100.00
20017;BME280;10169;42.664;23.610;2023-04-01T16:53:48;94144.81;;;8.20;100.00
20017;BME280;10169;42.664;23.610;2023-04-01T16:55:50;94132.34;;;8.15;100.00
20017;BME280;10169;42.664;23.610;2023-04-01T16:57:56;94134.50;;;8.23;100.00
20017;BME280;10169;42.664;23.610;2023-04-01T17:04:06;94136.13;;;8.24;100.00
20017;BME280;10169;42.664;23.610;2023-04-01T17:06:12;94129.72;;;8.20;100.00
20017;BME280;10169;42.664;23.610;2023-04-01T17:08:39;94123.91;;;8.23;100.00
20017;BME280;10169;42.664;23.610;2023-04-01T17:10:56;94140.88;;;8.22;100.00
20017;BME280;10169;42.664;23.610;2023-04-01T17:30:38;94183.50;;;7.99;100.00
20017;BME280;10169;42.664;23.610;2023-04-01T17:32:50;94171.03;;;7.94;100.00
20017;BME280;10169;42.664;23.610;2023-04-01T17:35:00;94186.31;;;7.87;100.00
20017;BME280;10169;42.664;23.610;2023-04-01T17:39:53;94192.84;;;7.80;100.00
20017;BME280;10169;42.664;23.610;2023-04-01T17:42:00;94180.59;;;7.74;100.00
20017;BME280;10169;42.664;23.610;2023-04-01T17:59:39;94223.31;;;7.61;100.00
20017;BME280;10169;42.664;23.610;2023-04-01T18:01:46;94210.34;;;7.59;100.00
20017;BME280;10169;42.664;23.610;2023-04-01T18:08:13;94211.00;;;7.50;100.00
20017;BME280;10169;42.664;23.610;2023-04-01T18:14:31;94214.50;;;7.33;100.00
20017;BME280;10169;42.664;23.610;2023-04-01T18:17:01;94219.00;;;7.33;100.00
20017;BME280;10169;42.664;23.610;2023-04-01T18:21:10;94217.72;;;7.36;100.00
20017;BME280;10169;42.664;23.610;2023-04-01T18:23:20;94211.38;;;7.37;100.00
20017;BME280;10169;42.664;23.610;2023-04-01T18:25:34;94206.38;;;7.35;100.00
20017;BME280;10169;42.664;23.610;2023-04-01T18:27:44;94212.41;;;7.36;100.00
20017;BME280;10169;42.664;23.610;2023-04-01T18:32:12;94189.88;;;7.28;100.00
20017;BME280;10169;42.664;23.610;2023-04-01T18:36:16;94215.03;;;7.30;100.00
20017;BME280;10169;42.664;23.610;2023-04-01T18:38:27;94229.81;;;7.31;100.00
20017;BME280;10169;42.664;23.610;2023-04-01T18:40:36;94236.16;;;7.30;100.00
20017;BME280;10169;42.664;23.610;2023-04-01T18:51:51;94258.44;;;7.18;100.00
20017;BME280;10169;42.664;23.610;2023-04-01T18:54:02;94250.59;;;7.06;100.00
20017;BME280;10169;42.664;23.610;2023-04-01T18:58:10;94254.31;;;7.05;100.00
20017;BME280;10169;42.664;23.610;2023-04-01T19:01:00;94261.97;;;7.07;100.00
20017;BME280;10169;42.664;23.610;2023-04-01T19:02:37;94252.78;;;7.09;100.00
20017;BME280;10169;42.664;23.610;2023-04-01T19:04:42;94254.38;;;7.10;100.00
20017;BME280;10169;42.664;23.610;2023-04-01T19:08:47;94267.66;;;7.15;100.00
20017;BME280;10169;42.664;23.610;2023-04-01T19:34:26;94313.28;;;7.66;100.00
20017;BME280;10169;42.664;23.610;2023-04-01T19:42:45;94308.41;;;7.79;100.00
20017;BME280;10169;42.664;23.610;2023-04-01T19:46:55;94312.09;;;7.78;100.00
20017;BME280;10169;42.664;23.610;2023-04-01T19:53:09;94308.66;;;7.78;100.00
20017;BME280;10169;42.664;23.610;2023-04-01T19:55:27;94306.50;;;7.75;100.00
20017;BME280;10169;42.664;23.610;2023-04-01T19:57:33;94306.75;;;7.73;100.00
20017;BME280;10169;42.664;23.610;2023-04-01T19:59:55;94309.56;;;7.67;100.00
20017;BME280;10169;42.664;23.610;2023-04-01T20:13:28;94317.66;;;7.39;100.00
20017;BME280;10169;42.664;23.610;2023-04-01T20:15:37;94311.75;;;7.31;100.00